Nephi, UT

1:05 AM MDT on April 25, 2015 (GMT -0600)
Fountain Green | | Change Station
CLOSE
Current Station
Personal Weather Station
Location: Fountain Green, UT
Elevation: 5912 ft
Nearby Weather Stations

Elev 5912 ft 39.63 °N, 111.63 °W | Updated 10 minutes ago

Overcast
Overcast
40.8 °F
Feels Like 39 °F
N
3.1
Wind Variable Wind from SSE

Today
High -- | Low -- °F
--% Chance of Precip.
Yesterday
High -- | Low -- °F
Precip. -- in
6:35 AM 8:15 PM
Waxing Crescent, 43% visible
Pressure 29.82 in
Visibility 10.0 miles
Clouds Scattered Clouds 2500 ft
Overcast 3100 ft
Windchill 39 °F
Dew Point 39 °F
Humidity 94%
Rainfall 0.07 in
Snow Depth Not available.
UV 0 out of 12
Pollen 9.30 out of 12
Air Quality Not available.
Flu Activity Local Activity
METAR KPVU 250655Z AUTO 00000KT 10SM SCT025 OVC031 08/04 A2982 RMK AO1

More Conditions Fewer Conditions

Pressure 29.82 in
Visibility 10.0 miles
Clouds Scattered Clouds 2500 ft
Overcast 3100 ft
Windchill 39 °F
Dew Point 39 °F
Humidity 94%
Rainfall 0.07 in
Snow Depth Not available.
UV 0 out of 12
Pollen 9.30 out of 12
Air Quality Not available.
Flu Activity Local Activity
METAR KPVU 250655Z AUTO 00000KT 10SM SCT025 OVC031 08/04 A2982 RMK AO1

More Conditions Fewer Conditions

10-Day Weather Forecast

Almanac

Astronomy

Apr. 25, 2015 Rise Set
Actual Time
Civil Twilight
Nautical Twilight
Astronomical Twilight
Moon
Length of Visible Light
Length of Day
Tomorrow will be .
, % of the Moon is Illuminated

Today's Extremes

State Highs State Lows

Community

WunderPhotos

Upload Photos

1,816,624 photos uploaded!

WunderBlogs® & News

Nearby

Air Quality

  Air Quality AQ Index Pollutant
Not available.

Snow Depth

Station Depth Elevation

Earthquake Activity

City Distance Mag. Time & Date
Minimum magnitude displayed is 2.5.

Coastal Water Temperatures

Place Temperature

Stations

Nearby Weather Stations

Station Location Temp. Windchill Dew Point Humidity Wind Precip. Elev Updated Type